Terminal Aerodrome Forecast
Issued by NWS

Home | Current Version | Previous Version | Graphics & Text | Print | Product List | Glossary On
Versions: 1 2 3 4 5 6 7 8 9 10 11 12 13 14 15 16 17 18
665
FTUS43 KTOP 211136
TAFMHK
TAF
KMHK 211136Z 2112/2212 10003KT P6SM BKN250
     FM211500 11009KT P6SM BKN050
     FM211800 11009KT P6SM VCTS BKN050CB
     FM212200 13004KT P6SM BKN050=

USA.gov is the U.S. government's official web portal to all federal, state and local government web resources and services.